Time;durP1;ratioP1;P1;durP2;ratioP2;P2;SDS_P1;SDS_P2;PMS_P1;PMS_P2;Temp;Humidity;BMP_temperature;BMP_pressure;BME280_temperature;BME280_humidity;BME280_pressure;Samples;Min_cycle;Max_cycle;Signal;HPM_P1;HPM_P2
2023/02/09 00:00:01;;;;;;;14.87;9.70;;;;;;;;;;6179037;23;20403;-76
2023/02/09 00:02:28;;;;;;;17.53;10.00;;;;;;;;;;6178988;23;20462;-77
2023/02/09 00:04:55;;;;;;;22.33;12.63;;;;;;;;;;6178783;23;20425;-76
2023/02/09 00:07:22;;;;;;;20.73;10.27;;;;;;;;;;6179258;23;20418;-76
2023/02/09 00:09:51;;;;;;;24.77;11.03;;;;;;;;;;6179100;23;21009;-76
2023/02/09 00:15:05;;;;;;;25.20;12.87;;;;;;;;;;6179527;23;20967;-76
2023/02/09 00:17:34;;;;;;;27.10;12.93;;;;;;;;;;6179565;23;20426;-76
2023/02/09 00:20:01;;;;;;;19.83;10.37;;;;;;;;;;6179446;23;20407;-76
2023/02/09 00:22:28;;;;;;;24.17;12.17;;;;;;;;;;6178459;23;20740;-76
2023/02/09 00:24:55;;;;;;;18.23;10.37;;;;;;;;;;6179635;23;20415;-76
2023/02/09 00:27:24;;;;;;;18.70;9.50;;;;;;;;;;6179404;23;20411;-77
2023/02/09 00:29:51;;;;;;;22.30;10.47;;;;;;;;;;6180142;23;20416;-76
2023/02/09 00:32:18;;;;;;;27.93;11.30;;;;;;;;;;6190202;23;20860;-75
2023/02/09 00:34:46;;;;;;;29.97;12.60;;;;;;;;;;6198592;23;20461;-87
2023/02/09 00:55:25;;;;;;;31.13;12.60;;;;;;;;;;6189014;23;20453;-84
2023/02/09 01:21:34;;;;;;;18.20;11.23;;;;;;;;;;6181288;23;20539;-85
2023/02/09 01:24:01;;;;;;;17.90;10.23;;;;;;;;;;6196632;23;21464;-87
2023/02/09 01:26:28;;;;;;;21.50;10.57;;;;;;;;;;6212483;23;20399;-88
2023/02/09 01:31:32;;;;;;;17.13;10.33;;;;;;;;;;6200288;23;20446;-89
2023/02/09 01:34:00;;;;;;;25.80;13.27;;;;;;;;;;6211332;23;20405;-90
2023/02/09 01:36:28;;;;;;;18.87;10.07;;;;;;;;;;6210723;23;20418;-89
2023/02/09 01:38:57;;;;;;;17.73;10.37;;;;;;;;;;6210529;23;20462;-88
2023/02/09 01:41:24;;;;;;;20.60;10.77;;;;;;;;;;6208138;23;20435;-89
2023/02/09 01:43:53;;;;;;;17.97;9.80;;;;;;;;;;6208067;23;20441;-88
2023/02/09 01:46:20;;;;;;;19.67;11.43;;;;;;;;;;6206361;23;20442;-89
2023/02/09 01:48:48;;;;;;;16.50;9.43;;;;;;;;;;6211927;23;20407;-89
2023/02/09 01:51:15;;;;;;;19.03;9.20;;;;;;;;;;6214275;23;20500;-87
2023/02/09 01:53:43;;;;;;;17.63;10.13;;;;;;;;;;6212640;23;20448;-83
2023/02/09 02:42:58;;;;;;;20.20;12.10;;;;;;;;;;6185808;23;20466;-85
2023/02/09 02:45:33;;;;;;;18.33;11.00;;;;;;;;;;6213645;23;20404;-85
2023/02/09 02:48:03;;;;;;;19.00;11.43;;;;;;;;;;6216951;23;20469;-87
2023/02/09 02:50:31;;;;;;;20.37;11.40;;;;;;;;;;6211975;23;20454;-90
2023/02/09 02:55:34;;;;;;;19.80;11.40;;;;;;;;;;6204199;23;20462;-87
2023/02/09 02:58:07;;;;;;;24.00;12.37;;;;;;;;;;6207125;23;20480;-87
2023/02/09 03:00:37;;;;;;;26.70;12.20;;;;;;;;;;6209883;23;20443;-82
2023/02/09 03:03:06;;;;;;;25.97;14.47;;;;;;;;;;6214687;23;20446;-80
2023/02/09 03:13:32;;;;;;;30.47;13.63;;;;;;;;;;6197331;23;20434;-79
2023/02/09 03:26:27;;;;;;;28.20;13.93;;;;;;;;;;6201058;23;20442;-80
2023/02/09 03:28:57;;;;;;;29.80;14.50;;;;;;;;;;6214487;23;20396;-80
2023/02/09 03:31:25;;;;;;;26.87;14.83;;;;;;;;;;6208319;23;20439;-80
2023/02/09 03:39:04;;;;;;;28.00;14.20;;;;;;;;;;6208702;23;20446;-79
2023/02/09 03:41:31;;;;;;;31.20;15.50;;;;;;;;;;6214377;23;20388;-80
2023/02/09 03:46:35;;;;;;;22.80;12.70;;;;;;;;;;6188816;23;20473;-80
2023/02/09 03:49:03;;;;;;;33.97;15.30;;;;;;;;;;6214045;23;20449;-81
2023/02/09 03:51:30;;;;;;;29.37;12.90;;;;;;;;;;6214105;23;20394;-79
2023/02/09 03:53:57;;;;;;;26.00;13.23;;;;;;;;;;6184381;23;20392;-81
2023/02/09 03:56:24;;;;;;;28.97;14.03;;;;;;;;;;6184266;23;20436;-83
2023/02/09 03:58:52;;;;;;;42.67;15.93;;;;;;;;;;6184166;23;20459;-81
2023/02/09 04:01:19;;;;;;;21.43;12.63;;;;;;;;;;6188085;23;20441;-77
2023/02/09 04:03:47;;;;;;;17.23;10.97;;;;;;;;;;6214222;23;20403;-80
2023/02/09 04:06:15;;;;;;;23.70;13.40;;;;;;;;;;6214034;23;20409;-80
2023/02/09 04:08:43;;;;;;;25.40;13.50;;;;;;;;;;6214191;23;20399;-82
2023/02/09 04:11:10;;;;;;;27.80;14.50;;;;;;;;;;6214052;23;20418;-80
2023/02/09 04:13:37;;;;;;;23.27;14.30;;;;;;;;;;6213665;23;20394;-81
2023/02/09 04:16:04;;;;;;;26.20;14.90;;;;;;;;;;6213879;23;20442;-81
2023/02/09 04:18:32;;;;;;;33.90;14.50;;;;;;;;;;6214016;23;20401;-81
2023/02/09 04:21:00;;;;;;;24.30;13.90;;;;;;;;;;6213808;23;20410;-81
2023/02/09 04:23:27;;;;;;;26.17;14.60;;;;;;;;;;6213572;23;20404;-79
2023/02/09 04:25:55;;;;;;;25.70;13.60;;;;;;;;;;6213873;23;20388;-80
2023/02/09 04:28:22;;;;;;;24.80;14.97;;;;;;;;;;6213854;23;20403;-81
2023/02/09 04:30:52;;;;;;;26.87;14.90;;;;;;;;;;6213818;23;20387;-81
2023/02/09 04:33:19;;;;;;;37.97;15.30;;;;;;;;;;6213720;23;20387;-79
2023/02/09 04:35:47;;;;;;;29.47;14.37;;;;;;;;;;6213548;23;20433;-80
2023/02/09 04:38:18;;;;;;;25.93;15.23;;;;;;;;;;6214247;23;20393;-81
2023/02/09 04:40:45;;;;;;;33.10;15.17;;;;;;;;;;6213423;23;20406;-81
2023/02/09 04:43:12;;;;;;;29.43;13.93;;;;;;;;;;6213855;23;20394;-80
2023/02/09 04:45:40;;;;;;;27.17;15.40;;;;;;;;;;6206912;23;20553;-81
2023/02/09 04:48:07;;;;;;;34.53;17.20;;;;;;;;;;6213244;23;20406;-81
2023/02/09 04:50:35;;;;;;;29.57;13.27;;;;;;;;;;6213165;23;20433;-81
2023/02/09 04:55:39;;;;;;;32.77;13.83;;;;;;;;;;6210864;23;20514;-81
2023/02/09 05:00:52;;;;;;;27.67;13.60;;;;;;;;;;6213337;23;20439;-81
2023/02/09 05:03:19;;;;;;;29.53;13.00;;;;;;;;;;6213116;23;20493;-81
2023/02/09 05:05:46;;;;;;;37.50;16.43;;;;;;;;;;6212171;23;20420;-81
2023/02/09 05:08:14;;;;;;;30.93;15.40;;;;;;;;;;6211904;23;20473;-81
2023/02/09 05:10:42;;;;;;;32.37;14.30;;;;;;;;;;6212186;23;20422;-80
2023/02/09 05:13:10;;;;;;;29.23;13.90;;;;;;;;;;6212670;23;20399;-82
2023/02/09 05:15:37;;;;;;;33.97;16.03;;;;;;;;;;6212046;23;20437;-81
2023/02/09 05:18:04;;;;;;;32.10;16.90;;;;;;;;;;6212112;23;20384;-80
2023/02/09 05:23:43;;;;;;;31.43;17.07;;;;;;;;;;6204018;23;20378;-80
2023/02/09 05:26:11;;;;;;;24.37;14.40;;;;;;;;;;6193021;23;20394;-81
2023/02/09 05:28:38;;;;;;;33.40;15.00;;;;;;;;;;6193475;23;20407;-81
2023/02/09 05:31:06;;;;;;;24.37;13.37;;;;;;;;;;6195624;23;20413;-80
2023/02/09 05:33:34;;;;;;;25.17;12.27;;;;;;;;;;6203335;23;20402;-82
2023/02/09 05:38:37;;;;;;;25.33;12.30;;;;;;;;;;6205807;23;20520;-79
2023/02/09 05:54:05;;;;;;;33.87;15.20;;;;;;;;;;6207386;22;20473;-80
2023/02/09 05:56:32;;;;;;;26.63;13.50;;;;;;;;;;6213775;23;20564;-81
2023/02/09 05:58:59;;;;;;;24.87;12.83;;;;;;;;;;6210125;23;20469;-80
2023/02/09 06:04:02;;;;;;;32.23;15.53;;;;;;;;;;6197511;23;20469;-82
2023/02/09 06:06:29;;;;;;;29.50;14.57;;;;;;;;;;6211807;23;20452;-80
2023/02/09 06:14:10;;;;;;;29.40;12.73;;;;;;;;;;6220240;22;20447;-81
2023/02/09 06:21:52;;;;;;;22.07;12.37;;;;;;;;;;6210390;22;20464;-78
2023/02/09 06:34:43;;;;;;;22.97;13.73;;;;;;;;;;6186365;23;20457;-73
2023/02/09 06:37:11;;;;;;;26.30;12.60;;;;;;;;;;6182041;23;20504;-74
2023/02/09 06:39:38;;;;;;;33.77;13.07;;;;;;;;;;6181713;23;20822;-76
2023/02/09 06:42:05;;;;;;;25.03;11.50;;;;;;;;;;6181658;23;20410;-77
2023/02/09 06:44:32;;;;;;;20.90;12.00;;;;;;;;;;6181418;23;20738;-75
2023/02/09 06:46:59;;;;;;;27.07;12.33;;;;;;;;;;6188287;23;20439;-77
2023/02/09 06:49:26;;;;;;;19.40;10.30;;;;;;;;;;6183254;23;20407;-77
2023/02/09 06:51:55;;;;;;;20.13;11.00;;;;;;;;;;6180656;23;20434;-78
2023/02/09 06:54:22;;;;;;;16.87;11.37;;;;;;;;;;6180188;23;20935;-75
2023/02/09 06:56:49;;;;;;;23.07;11.57;;;;;;;;;;6179382;23;20462;-75
2023/02/09 06:59:17;;;;;;;23.30;11.83;;;;;;;;;;6179288;23;20406;-75
2023/02/09 07:01:44;;;;;;;24.33;11.00;;;;;;;;;;6179814;23;20639;-76
2023/02/09 07:04:11;;;;;;;22.00;11.80;;;;;;;;;;6180196;23;20410;-75
2023/02/09 07:06:38;;;;;;;28.43;11.30;;;;;;;;;;6179790;23;20726;-75
2023/02/09 07:09:06;;;;;;;30.87;10.73;;;;;;;;;;6179700;23;20407;-74
2023/02/09 07:11:33;;;;;;;25.03;9.90;;;;;;;;;;6179493;23;20413;-73
2023/02/09 07:14:00;;;;;;;21.60;9.47;;;;;;;;;;6179296;23;20581;-73
2023/02/09 07:16:28;;;;;;;18.40;10.10;;;;;;;;;;6179300;23;20449;-73
2023/02/09 07:18:55;;;;;;;20.30;11.03;;;;;;;;;;6179693;23;20902;-74
2023/02/09 07:21:22;;;;;;;18.67;10.57;;;;;;;;;;6178759;23;20805;-72
2023/02/09 07:23:51;;;;;;;24.67;9.40;;;;;;;;;;6177144;23;20498;-73
2023/02/09 07:26:19;;;;;;;20.67;10.33;;;;;;;;;;6176068;23;20406;-74
2023/02/09 07:28:47;;;;;;;21.47;9.40;;;;;;;;;;6179376;23;20771;-73
2023/02/09 07:31:15;;;;;;;18.73;9.27;;;;;;;;;;6178550;23;20425;-73
2023/02/09 07:33:42;;;;;;;15.83;9.33;;;;;;;;;;6179317;23;20498;-73
2023/02/09 07:36:11;;;;;;;20.07;11.90;;;;;;;;;;6179283;23;20441;-74
2023/02/09 07:38:38;;;;;;;21.60;8.50;;;;;;;;;;6178998;23;20846;-74
2023/02/09 07:41:06;;;;;;;14.80;9.57;;;;;;;;;;6179223;23;20740;-73
2023/02/09 07:43:35;;;;;;;18.70;9.27;;;;;;;;;;6178455;23;20427;-73
2023/02/09 07:46:02;;;;;;;13.23;9.33;;;;;;;;;;6178880;23;20911;-73
2023/02/09 07:48:30;;;;;;;18.60;9.20;;;;;;;;;;6178158;23;20901;-74
2023/02/09 07:50:57;;;;;;;13.63;8.57;;;;;;;;;;6178887;23;20411;-73
2023/02/09 07:53:24;;;;;;;20.57;7.80;;;;;;;;;;6179591;23;20944;-73
2023/02/09 07:55:51;;;;;;;16.10;9.40;;;;;;;;;;6180534;23;20470;-77
2023/02/09 07:58:19;;;;;;;19.37;8.73;;;;;;;;;;6180260;23;20901;-77
2023/02/09 08:00:49;;;;;;;18.73;11.03;;;;;;;;;;6179772;23;20970;-76
2023/02/09 08:03:17;;;;;;;16.83;8.00;;;;;;;;;;6179341;23;20395;-77
2023/02/09 08:05:48;;;;;;;16.10;9.50;;;;;;;;;;6180056;23;20415;-76
2023/02/09 08:08:15;;;;;;;30.07;9.37;;;;;;;;;;6179823;23;20532;-76
2023/02/09 08:10:43;;;;;;;17.87;9.67;;;;;;;;;;6179318;23;20695;-76
2023/02/09 08:13:10;;;;;;;18.40;9.20;;;;;;;;;;6178802;23;20418;-76
2023/02/09 08:15:39;;;;;;;13.30;7.77;;;;;;;;;;6183268;23;20404;-77
2023/02/09 08:18:09;;;;;;;14.87;8.40;;;;;;;;;;6182083;23;20425;-77
2023/02/09 08:20:36;;;;;;;12.70;7.80;;;;;;;;;;6180159;23;20821;-77
2023/02/09 08:23:08;;;;;;;11.07;8.23;;;;;;;;;;6186525;23;20398;-77
2023/02/09 08:25:35;;;;;;;12.03;7.13;;;;;;;;;;6182573;23;20473;-77
2023/02/09 08:28:03;;;;;;;10.53;6.57;;;;;;;;;;6186836;23;20990;-77
2023/02/09 08:30:30;;;;;;;18.00;9.80;;;;;;;;;;6185640;23;20449;-78
2023/02/09 08:32:57;;;;;;;14.57;7.50;;;;;;;;;;6185176;23;20411;-77
2023/02/09 08:35:26;;;;;;;19.80;8.10;;;;;;;;;;6184417;23;20435;-77
2023/02/09 08:37:53;;;;;;;12.37;8.93;;;;;;;;;;6178809;23;20403;-77
2023/02/09 08:40:20;;;;;;;12.80;7.63;;;;;;;;;;6178872;23;20395;-77
2023/02/09 08:42:47;;;;;;;13.83;8.50;;;;;;;;;;6179198;23;20498;-76
2023/02/09 08:45:14;;;;;;;18.60;8.53;;;;;;;;;;6179396;23;20423;-75
2023/02/09 08:47:41;;;;;;;10.37;6.00;;;;;;;;;;6178265;23;20418;-76
2023/02/09 08:50:09;;;;;;;9.60;6.30;;;;;;;;;;6177279;23;20725;-76
2023/02/09 08:52:37;;;;;;;15.13;7.80;;;;;;;;;;6177505;23;20423;-75
2023/02/09 08:55:05;;;;;;;16.10;7.20;;;;;;;;;;6177604;23;20422;-77
2023/02/09 08:57:32;;;;;;;12.57;8.20;;;;;;;;;;6176417;23;20477;-75
2023/02/09 08:59:59;;;;;;;12.90;7.97;;;;;;;;;;6177380;23;20426;-78
2023/02/09 09:02:26;;;;;;;13.17;7.00;;;;;;;;;;6177635;23;20408;-77
2023/02/09 09:04:53;;;;;;;11.23;8.43;;;;;;;;;;6178480;23;20436;-80
2023/02/09 09:07:20;;;;;;;22.33;9.17;;;;;;;;;;6179091;23;20906;-75
2023/02/09 09:09:49;;;;;;;11.13;7.30;;;;;;;;;;6180163;23;20730;-78
2023/02/09 09:12:16;;;;;;;14.37;7.97;;;;;;;;;;6179319;23;20410;-75
2023/02/09 09:14:43;;;;;;;11.10;6.60;;;;;;;;;;6180537;23;20989;-74
2023/02/09 09:17:11;;;;;;;9.80;6.47;;;;;;;;;;6180195;23;20760;-74
2023/02/09 09:19:38;;;;;;;10.73;6.20;;;;;;;;;;6179408;23;20412;-77
2023/02/09 09:22:05;;;;;;;12.53;5.63;;;;;;;;;;6179733;23;20400;-75
2023/02/09 09:24:39;;;;;;;10.80;6.67;;;;;;;;;;6179391;23;20402;-73
2023/02/09 09:27:07;;;;;;;10.23;7.13;;;;;;;;;;6180112;23;20392;-75
2023/02/09 09:29:35;;;;;;;9.53;6.50;;;;;;;;;;6180418;23;20641;-75
2023/02/09 09:32:03;;;;;;;13.20;6.40;;;;;;;;;;6179491;23;20458;-74
2023/02/09 09:34:30;;;;;;;7.33;5.60;;;;;;;;;;6179383;23;21003;-75
2023/02/09 09:36:57;;;;;;;12.30;6.77;;;;;;;;;;6176924;23;20538;-72
2023/02/09 09:39:25;;;;;;;17.53;6.83;;;;;;;;;;6173651;23;20511;-73
2023/02/09 09:41:56;;;;;;;9.00;6.17;;;;;;;;;;6174281;23;20410;-74
2023/02/09 09:44:28;;;;;;;15.70;6.37;;;;;;;;;;6175085;23;20947;-72
2023/02/09 09:46:59;;;;;;;9.60;5.80;;;;;;;;;;6176122;23;20392;-74
2023/02/09 09:49:28;;;;;;;6.60;4.57;;;;;;;;;;6175854;23;20531;-72
2023/02/09 09:51:57;;;;;;;7.77;5.73;;;;;;;;;;6177112;23;20458;-72
2023/02/09 09:54:26;;;;;;;22.07;5.63;;;;;;;;;;6176522;23;20723;-71
2023/02/09 09:56:54;;;;;;;8.73;6.03;;;;;;;;;;6177138;23;20431;-72
2023/02/09 09:59:22;;;;;;;10.53;6.80;;;;;;;;;;6176572;23;20964;-72
2023/02/09 10:01:52;;;;;;;9.97;7.47;;;;;;;;;;6175546;23;20408;-71
2023/02/09 10:04:19;;;;;;;12.30;6.43;;;;;;;;;;6176666;23;20731;-72
2023/02/09 10:06:47;;;;;;;7.80;5.80;;;;;;;;;;6176751;23;20408;-73
2023/02/09 10:09:21;;;;;;;8.67;6.17;;;;;;;;;;6175805;23;20400;-73
2023/02/09 10:11:51;;;;;;;6.47;5.07;;;;;;;;;;6173855;23;20376;-74
2023/02/09 10:14:18;;;;;;;12.70;7.93;;;;;;;;;;6174041;23;20431;-74
2023/02/09 10:16:46;;;;;;;8.93;5.13;;;;;;;;;;6174192;23;20471;-74
2023/02/09 10:19:20;;;;;;;13.00;6.33;;;;;;;;;;6175183;23;20412;-75
2023/02/09 10:21:48;;;;;;;10.97;7.50;;;;;;;;;;6175775;23;20403;-74
2023/02/09 10:24:20;;;;;;;14.13;7.10;;;;;;;;;;6175138;23;20714;-75
2023/02/09 10:27:02;;;;;;;11.73;7.63;;;;;;;;;;6174899;23;20479;-84
2023/02/09 10:29:29;;;;;;;10.30;6.67;;;;;;;;;;6175211;23;20403;-76
2023/02/09 10:32:00;;;;;;;10.90;6.10;;;;;;;;;;6176306;23;20416;-76
2023/02/09 10:34:32;;;;;;;18.53;7.20;;;;;;;;;;6175438;23;20442;-74
2023/02/09 10:37:14;;;;;;;16.13;9.03;;;;;;;;;;6175443;23;20436;-74
2023/02/09 10:39:41;;;;;;;13.93;7.03;;;;;;;;;;6175730;23;20397;-73
2023/02/09 10:42:15;;;;;;;10.63;7.00;;;;;;;;;;6176175;23;20415;-73
2023/02/09 10:44:42;;;;;;;10.07;6.20;;;;;;;;;;6175921;23;20739;-74
2023/02/09 10:47:10;;;;;;;12.13;7.27;;;;;;;;;;6175417;23;21012;-73
2023/02/09 10:49:39;;;;;;;12.17;6.63;;;;;;;;;;6177600;23;20419;-74
2023/02/09 10:52:08;;;;;;;8.80;6.33;;;;;;;;;;6176869;23;20433;-76
2023/02/09 10:54:35;;;;;;;11.93;6.93;;;;;;;;;;6179589;23;20440;-74
2023/02/09 10:57:02;;;;;;;11.47;6.10;;;;;;;;;;6177891;23;20444;-73
2023/02/09 10:59:31;;;;;;;10.67;6.10;;;;;;;;;;6176502;23;20487;-74
2023/02/09 11:02:00;;;;;;;8.53;5.50;;;;;;;;;;6176670;23;20805;-74
2023/02/09 11:04:30;;;;;;;11.60;6.13;;;;;;;;;;6176661;23;20447;-74
2023/02/09 11:06:59;;;;;;;8.10;6.20;;;;;;;;;;6175805;23;20409;-73
2023/02/09 11:09:28;;;;;;;6.23;5.60;;;;;;;;;;6180713;23;20419;-74
2023/02/09 11:11:55;;;;;;;8.53;6.10;;;;;;;;;;6182576;23;20431;-75
2023/02/09 11:14:23;;;;;;;6.07;5.47;;;;;;;;;;6180500;23;20831;-75
2023/02/09 11:17:05;;;;;;;7.20;6.50;;;;;;;;;;6178632;23;20444;-75
2023/02/09 11:19:48;;;;;;;11.80;6.47;;;;;;;;;;6172177;23;20411;-75
2023/02/09 11:22:19;;;;;;;6.40;5.70;;;;;;;;;;6175060;23;20388;-75
2023/02/09 11:24:51;;;;;;;11.67;6.77;;;;;;;;;;6175130;23;20600;-75
2023/02/09 11:27:29;;;;;;;14.03;7.23;;;;;;;;;;6175455;23;20429;-77
2023/02/09 11:30:03;;;;;;;18.17;7.70;;;;;;;;;;6175897;23;20735;-75
2023/02/09 11:32:32;;;;;;;11.60;7.23;;;;;;;;;;6176059;23;20400;-75
2023/02/09 11:35:07;;;;;;;7.43;6.50;;;;;;;;;;6177143;23;20439;-76
2023/02/09 11:37:40;;;;;;;16.30;7.90;;;;;;;;;;6178329;23;20423;-76
2023/02/09 11:40:20;;;;;;;10.23;6.93;;;;;;;;;;6180689;23;20396;-76
2023/02/09 11:42:49;;;;;;;13.00;7.57;;;;;;;;;;6180443;23;20418;-76
2023/02/09 11:45:20;;;;;;;12.40;7.50;;;;;;;;;;6181998;23;20412;-76
2023/02/09 11:48:06;;;;;;;10.43;6.80;;;;;;;;;;6180272;23;20712;-76
2023/02/09 11:50:37;;;;;;;12.77;8.73;;;;;;;;;;6175943;23;20952;-76
2023/02/09 11:53:11;;;;;;;13.20;8.10;;;;;;;;;;6176246;23;20439;-76
2023/02/09 11:55:41;;;;;;;13.13;8.63;;;;;;;;;;6175920;23;20416;-76
2023/02/09 11:58:22;;;;;;;9.70;7.77;;;;;;;;;;6175536;23;20964;-77
2023/02/09 12:00:50;;;;;;;13.00;8.57;;;;;;;;;;6176553;23;20514;-73
2023/02/09 12:03:17;;;;;;;12.33;8.47;;;;;;;;;;6176402;23;20925;-75
2023/02/09 12:05:45;;;;;;;12.40;8.03;;;;;;;;;;6176029;23;20399;-75
2023/02/09 12:08:39;;;;;;;9.90;8.20;;;;;;;;;;6179990;23;20470;-76
2023/02/09 12:11:18;;;;;;;13.63;8.40;;;;;;;;;;6181390;23;20387;-76
2023/02/09 12:13:54;;;;;;;11.50;7.67;;;;;;;;;;6182005;23;20729;-77
2023/02/09 12:16:22;;;;;;;13.87;9.33;;;;;;;;;;6185187;23;20396;-77
2023/02/09 12:18:49;;;;;;;10.43;7.90;;;;;;;;;;6185455;23;20865;-77
2023/02/09 12:21:27;;;;;;;16.13;10.33;;;;;;;;;;6185465;23;20406;-77
2023/02/09 12:23:55;;;;;;;12.03;8.53;;;;;;;;;;6180930;23;20858;-78
2023/02/09 12:26:38;;;;;;;12.23;8.20;;;;;;;;;;6179604;23;20400;-75
2023/02/09 12:29:23;;;;;;;14.20;8.23;;;;;;;;;;6179622;23;20882;-76
2023/02/09 12:32:08;;;;;;;12.33;8.00;;;;;;;;;;6180042;23;20487;-76
2023/02/09 12:34:39;;;;;;;13.07;8.73;;;;;;;;;;6121196;23;20442;-75
2023/02/09 12:37:16;;;;;;;14.20;10.00;;;;;;;;;;6180132;23;20435;-75
2023/02/09 12:39:58;;;;;;;13.73;9.80;;;;;;;;;;6188275;23;20407;-78
2023/02/09 12:42:38;;;;;;;17.40;9.90;;;;;;;;;;6197710;23;20411;-81
2023/02/09 12:45:30;;;;;;;14.73;9.80;;;;;;;;;;6206027;23;20388;-80
2023/02/09 12:47:58;;;;;;;13.57;9.57;;;;;;;;;;6207209;23;20404;-80
2023/02/09 12:50:32;;;;;;;15.00;9.63;;;;;;;;;;6206973;23;20388;-81
2023/02/09 12:53:18;;;;;;;15.23;10.23;;;;;;;;;;6204109;23;20437;-85
2023/02/09 12:55:58;;;;;;;15.13;9.87;;;;;;;;;;6198895;23;20412;-88
2023/02/09 12:58:37;;;;;;;11.20;9.57;;;;;;;;;;6199710;23;20783;-86
2023/02/09 13:01:05;;;;;;;13.23;8.90;;;;;;;;;;6198954;23;20410;-80
2023/02/09 13:03:33;;;;;;;55.70;29.83;;;;;;;;;;6200527;23;20455;-80
2023/02/09 13:06:01;;;;;;;15.27;9.80;;;;;;;;;;6200214;23;20404;-85
2023/02/09 13:08:30;;;;;;;14.70;9.30;;;;;;;;;;6201295;23;20895;-87
2023/02/09 13:11:00;;;;;;;12.27;9.23;;;;;;;;;;6194485;23;20392;-82
2023/02/09 13:13:33;;;;;;;12.13;8.77;;;;;;;;;;6196947;23;20428;-86
2023/02/09 13:16:13;;;;;;;20.77;9.90;;;;;;;;;;6192721;23;20383;-81
2023/02/09 13:18:46;;;;;;;15.87;8.60;;;;;;;;;;6200129;23;20439;-84
2023/02/09 13:21:18;;;;;;;24.80;10.80;;;;;;;;;;6200796;23;20438;-83
2023/02/09 13:23:51;;;;;;;27.13;15.70;;;;;;;;;;6196369;23;20846;-80
2023/02/09 13:26:22;;;;;;;15.90;9.60;;;;;;;;;;6198633;23;21040;-79
2023/02/09 13:28:50;;;;;;;15.07;10.33;;;;;;;;;;6202170;23;20932;-80
2023/02/09 13:31:31;;;;;;;17.23;9.90;;;;;;;;;;6199699;23;20392;-81
2023/02/09 13:34:01;;;;;;;18.40;10.10;;;;;;;;;;6201498;23;20415;-80
2023/02/09 13:36:33;;;;;;;14.33;9.90;;;;;;;;;;6200525;23;20456;-80
2023/02/09 13:39:01;;;;;;;13.23;9.03;;;;;;;;;;6200918;23;20442;-80
2023/02/09 13:41:31;;;;;;;13.07;8.77;;;;;;;;;;6201095;23;20435;-80
2023/02/09 13:43:59;;;;;;;14.80;9.70;;;;;;;;;;6200580;23;20398;-80
2023/02/09 13:46:30;;;;;;;14.10;10.40;;;;;;;;;;6201663;23;20467;-80
2023/02/09 13:49:10;;;;;;;12.70;9.40;;;;;;;;;;6199866;23;20422;-80
2023/02/09 13:51:37;;;;;;;14.47;9.57;;;;;;;;;;6198539;23;20392;-80
2023/02/09 13:54:04;;;;;;;16.00;10.33;;;;;;;;;;6201298;23;20412;-80
2023/02/09 13:56:32;;;;;;;10.67;9.10;;;;;;;;;;6201870;23;20420;-84
2023/02/09 13:59:00;;;;;;;13.80;10.17;;;;;;;;;;6201894;23;20444;-80
2023/02/09 14:01:30;;;;;;;32.63;17.00;;;;;;;;;;6199611;23;20405;-81
2023/02/09 14:03:59;;;;;;;13.20;8.17;;;;;;;;;;6194732;23;20412;-86
2023/02/09 14:06:31;;;;;;;15.60;8.60;;;;;;;;;;6189171;23;20761;-88
2023/02/09 14:09:00;;;;;;;14.23;8.50;;;;;;;;;;6195322;23;20411;-87
2023/02/09 14:11:30;;;;;;;13.33;9.20;;;;;;;;;;6189060;23;20736;-88
2023/02/09 14:14:00;;;;;;;14.90;9.47;;;;;;;;;;6191364;23;20724;-85
2023/02/09 14:16:29;;;;;;;16.73;9.70;;;;;;;;;;6187247;23;20480;-91
2023/02/09 14:18:57;;;;;;;13.97;9.17;;;;;;;;;;6196252;23;20431;-82
2023/02/09 14:21:26;;;;;;;12.40;9.13;;;;;;;;;;6186949;23;20410;-87
2023/02/09 14:24:14;;;;;;;13.30;8.90;;;;;;;;;;6183345;23;20427;-84
2023/02/09 14:26:49;;;;;;;13.90;9.60;;;;;;;;;;6190322;23;20798;-79
2023/02/09 14:29:18;;;;;;;20.77;9.47;;;;;;;;;;6184088;23;20874;-80
2023/02/09 14:31:49;;;;;;;16.30;9.40;;;;;;;;;;6174435;23;20404;-78
2023/02/09 14:34:30;;;;;;;19.60;10.00;;;;;;;;;;6177045;23;20447;-77
2023/02/09 14:36:58;;;;;;;14.40;10.77;;;;;;;;;;6177496;23;20405;-78
2023/02/09 14:39:25;;;;;;;13.53;10.53;;;;;;;;;;6177758;23;20483;-76
2023/02/09 14:41:56;;;;;;;14.03;10.10;;;;;;;;;;6174952;23;20475;-77
2023/02/09 14:44:24;;;;;;;12.43;8.93;;;;;;;;;;6176398;23;20416;-78
2023/02/09 14:46:53;;;;;;;26.40;11.57;;;;;;;;;;6175841;23;20408;-76
2023/02/09 14:49:21;;;;;;;16.70;9.80;;;;;;;;;;6175911;23;20406;-76
2023/02/09 14:51:48;;;;;;;16.40;11.00;;;;;;;;;;6176223;23;20910;-77
2023/02/09 14:54:22;;;;;;;14.33;9.87;;;;;;;;;;6177543;23;20495;-76
2023/02/09 14:56:50;;;;;;;15.10;10.77;;;;;;;;;;6176876;23;20431;-76
2023/02/09 14:59:17;;;;;;;16.17;9.87;;;;;;;;;;6175763;23;20968;-76
2023/02/09 15:01:45;;;;;;;15.20;9.70;;;;;;;;;;6176021;23;20498;-77
2023/02/09 15:04:13;;;;;;;14.37;9.10;;;;;;;;;;6176153;23;20415;-78
2023/02/09 15:06:41;;;;;;;13.30;8.80;;;;;;;;;;6176645;23;20443;-78
2023/02/09 15:09:10;;;;;;;21.87;12.10;;;;;;;;;;6179666;23;20761;-81
2023/02/09 15:14:24;;;;;;;17.93;10.97;;;;;;;;;;6179473;23;20456;-80
2023/02/09 15:16:51;;;;;;;20.73;11.80;;;;;;;;;;6182206;23;20456;-80
2023/02/09 15:19:22;;;;;;;15.90;10.53;;;;;;;;;;6182299;23;20443;-82
2023/02/09 15:21:49;;;;;;;20.00;10.70;;;;;;;;;;6178117;23;20418;-84
2023/02/09 15:24:16;;;;;;;18.60;9.97;;;;;;;;;;6176249;23;20415;-83
2023/02/09 15:26:44;;;;;;;18.97;10.47;;;;;;;;;;6178665;23;20416;-79
2023/02/09 15:29:12;;;;;;;17.90;10.40;;;;;;;;;;6185735;23;20820;-79
2023/02/09 15:31:39;;;;;;;22.27;11.50;;;;;;;;;;6182389;23;20925;-78
2023/02/09 15:34:06;;;;;;;19.73;10.63;;;;;;;;;;6179946;23;20466;-78
2023/02/09 15:36:35;;;;;;;21.33;9.70;;;;;;;;;;6180361;23;20440;-79
2023/02/09 15:39:02;;;;;;;18.97;10.80;;;;;;;;;;6178782;23;20447;-80
2023/02/09 15:49:45;;;;;;;17.67;11.33;;;;;;;;;;6184137;23;20391;-78
2023/02/09 15:52:14;;;;;;;18.10;10.60;;;;;;;;;;6180565;23;20903;-80
2023/02/09 15:54:42;;;;;;;18.73;10.70;;;;;;;;;;6182047;23;20404;-78
2023/02/09 15:57:11;;;;;;;23.13;12.53;;;;;;;;;;6185339;23;21087;-79
2023/02/09 15:59:38;;;;;;;25.33;11.60;;;;;;;;;;6188327;23;20455;-80
2023/02/09 16:02:10;;;;;;;25.33;11.90;;;;;;;;;;6187499;23;20495;-82
2023/02/09 16:04:37;;;;;;;22.10;11.87;;;;;;;;;;6182980;23;20487;-78
2023/02/09 16:07:04;;;;;;;26.90;11.80;;;;;;;;;;6185161;23;20420;-80
2023/02/09 16:09:33;;;;;;;22.33;12.00;;;;;;;;;;6195313;23;20412;-79
2023/02/09 16:12:00;;;;;;;19.10;10.93;;;;;;;;;;6185011;23;20631;-81
2023/02/09 16:14:27;;;;;;;18.03;11.10;;;;;;;;;;6177995;23;20412;-83
2023/02/09 16:16:55;;;;;;;21.00;11.00;;;;;;;;;;6177027;23;20534;-84
2023/02/09 16:19:22;;;;;;;19.83;11.70;;;;;;;;;;6178259;23;20460;-85
2023/02/09 16:21:51;;;;;;;19.60;12.20;;;;;;;;;;6184214;23;20439;-87
2023/02/09 16:24:21;;;;;;;23.90;11.60;;;;;;;;;;6182083;23;20503;-86
2023/02/09 16:26:49;;;;;;;25.37;12.67;;;;;;;;;;6178160;23;20408;-87
2023/02/09 16:29:16;;;;;;;18.93;11.77;;;;;;;;;;6179179;23;20490;-86
2023/02/09 16:31:43;;;;;;;19.80;10.43;;;;;;;;;;6175275;23;20751;-81
2023/02/09 16:34:14;;;;;;;19.63;11.03;;;2.90;99.90;;;;;;6175364;23;20444;-82
2023/02/09 16:36:42;;;;;;;25.93;12.47;;;2.90;99.90;;;;;;6173876;23;20443;-78
2023/02/09 16:39:17;;;;;;;22.97;13.80;;;2.80;99.90;;;;;;6174345;23;20452;-75
2023/02/09 16:41:48;;;;;;;25.87;13.53;;;2.90;99.90;;;;;;6174176;23;20447;-82
2023/02/09 16:44:19;;;;;;;29.53;13.63;;;2.80;99.90;;;;;;6173416;23;20791;-84
2023/02/09 16:46:48;;;;;;;19.77;11.00;;;2.70;99.90;;;;;;6175336;23;20418;-85
2023/02/09 16:49:29;;;;;;;19.03;12.37;;;2.70;99.90;;;;;;6175186;23;20430;-80
2023/02/09 16:51:58;;;;;;;21.23;11.63;;;;;;;;;;6174523;23;20434;-82
2023/02/09 16:54:25;;;;;;;23.07;12.13;;;2.40;99.90;;;;;;6175863;23;20482;-79
2023/02/09 16:56:51;;;;;;;25.07;10.93;;;2.50;99.90;;;;;;6175091;23;20415;-79
2023/02/09 16:59:19;;;;;;;20.77;12.73;;;2.50;99.90;;;;;;6174145;23;20458;-81
2023/02/09 17:01:47;;;;;;;21.23;13.40;;;2.40;99.90;;;;;;6174769;23;20404;-81
2023/02/09 17:04:14;;;;;;;21.87;13.90;;;2.40;99.90;;;;;;6175791;23;20439;-81
2023/02/09 17:06:41;;;;;;;27.40;14.67;;;;;;;;;;6174667;23;20428;-84
2023/02/09 17:09:12;;;;;;;31.00;14.93;;;;;;;;;;6174802;23;20422;-84
2023/02/09 17:11:39;;;;;;;27.57;14.73;;;;;;;;;;6174258;23;20384;-78
2023/02/09 17:14:07;;;;;;;22.30;14.90;;;;;;;;;;6174142;23;20964;-78
2023/02/09 17:16:37;;;;;;;24.83;14.47;;;;;;;;;;6174841;23;20495;-81
2023/02/09 17:19:07;;;;;;;23.30;14.47;;;1.90;99.90;;;;;;6175235;23;20453;-78
2023/02/09 17:21:38;;;;;;;26.70;15.40;;;2.00;99.90;;;;;;6174930;23;20400;-84
2023/02/09 17:24:11;;;;;;;26.00;14.63;;;2.00;99.90;;;;;;6175681;23;20909;-81
2023/02/09 17:26:39;;;;;;;24.60;13.40;;;2.00;99.90;;;;;;6177737;23;20399;-83
2023/02/09 17:29:05;;;;;;;35.80;15.93;;;1.80;99.90;;;;;;6174906;23;20929;-82
2023/02/09 17:31:36;;;;;;;26.27;15.10;;;1.90;99.90;;;;;;6177185;23;20411;-86